Time,TemperatureF,DewpointF,PressureIn,WindDirection,WindDirectionDegrees,WindSpeedMPH,WindSpeedGustMPH,Humidity,HourlyPrecipIn,Conditions,Clouds,dailyrainin,SoftwareType,DateUTC
2013-05-12 00:02:00,65.0,64.0,30.00,NW,316,0.0,0.0,97,0.00,,,0.23,,2013-05-12 05:02:00,
2013-05-12 00:11:00,65.0,64.0,30.00,NW,316,0.0,0.0,97,0.00,,,0.23,,2013-05-12 05:11:00,
2013-05-12 00:22:00,64.0,63.0,30.00,NW,316,0.0,0.0,97,0.00,,,0.23,,2013-05-12 05:22:00,
2013-05-12 00:32:00,65.0,64.0,30.01,NW,316,0.0,0.0,98,0.00,,,0.23,,2013-05-12 05:32:00,
2013-05-12 00:42:00,65.0,64.0,30.01,NW,316,0.0,0.0,98,0.00,,,0.23,,2013-05-12 05:42:00,
2013-05-12 00:51:00,65.0,64.0,30.01,NW,316,0.0,0.0,98,0.00,,,0.23,,2013-05-12 05:51:00,
2013-05-12 01:01:00,65.0,64.0,30.01,NW,316,0.0,0.0,98,0.00,,,0.22,,2013-05-12 06:01:00,
2013-05-12 01:11:00,66.0,65.0,30.01,NW,316,0.0,2.0,98,0.00,,,0.22,,2013-05-12 06:11:00,
2013-05-12 01:21:00,66.0,65.0,30.01,NW,316,0.0,2.0,98,0.00,,,0.22,,2013-05-12 06:21:00,
2013-05-12 01:32:00,66.0,65.0,30.01,NW,316,0.0,2.0,98,0.00,,,0.22,,2013-05-12 06:32:00,
2013-05-12 01:42:00,66.0,65.0,30.01,NW,316,0.0,1.0,98,0.00,,,0.22,,2013-05-12 06:42:00,
2013-05-12 01:51:00,66.0,65.0,30.01,NW,316,0.0,1.0,98,0.00,,,0.22,,2013-05-12 06:51:00,
2013-05-12 02:01:00,66.0,65.0,30.00,NW,316,0.0,0.0,98,0.00,,,0.22,,2013-05-12 07:01:00,
2013-05-12 02:11:00,65.0,64.0,30.00,NW,316,0.0,0.0,98,0.00,,,0.22,,2013-05-12 07:11:00,
2013-05-12 02:21:00,65.0,64.0,30.00,NW,316,0.0,0.0,98,0.00,,,0.22,,2013-05-12 07:21:00,
2013-05-12 02:32:00,65.0,64.0,30.00,NW,316,0.0,0.0,98,0.00,,,0.22,,2013-05-12 07:32:00,
2013-05-12 02:42:00,65.0,64.0,30.00,NW,316,0.0,0.0,98,0.00,,,0.22,,2013-05-12 07:42:00,
2013-05-12 02:52:00,65.0,64.0,30.00,NW,316,0.0,0.0,98,0.00,,,0.22,,2013-05-12 07:52:00,
2013-05-12 03:02:00,64.0,63.0,30.00,NW,316,0.0,0.0,98,0.00,,,0.22,,2013-05-12 08:02:00,
2013-05-12 03:11:00,64.0,63.0,30.00,NW,316,0.0,0.0,98,0.00,,,0.22,,2013-05-12 08:11:00,
2013-05-12 03:21:00,64.0,63.0,30.00,NW,316,0.0,0.0,98,0.00,,,0.22,,2013-05-12 08:21:00,
2013-05-12 03:32:00,64.0,63.0,30.00,West,271,0.0,2.0,98,0.00,,,0.22,,2013-05-12 08:32:00,
2013-05-12 03:41:00,64.0,63.0,30.00,West,271,0.0,2.0,98,0.00,,,0.22,,2013-05-12 08:41:00,
2013-05-12 03:52:00,64.0,63.0,30.00,West,271,0.0,2.0,98,0.00,,,0.22,,2013-05-12 08:52:00,
2013-05-12 04:01:00,63.0,62.0,30.01,West,271,0.0,0.0,98,0.00,,,0.22,,2013-05-12 09:01:00,
2013-05-12 04:11:00,63.0,62.0,30.01,West,271,0.0,0.0,98,0.00,,,0.22,,2013-05-12 09:11:00,
2013-05-12 04:21:00,63.0,62.0,30.01,West,271,0.0,0.0,98,0.00,,,0.22,,2013-05-12 09:21:00,
2013-05-12 04:33:00,63.0,62.0,30.01,West,271,0.0,0.0,98,0.00,,,0.22,,2013-05-12 09:33:00,
2013-05-12 04:42:00,63.0,62.0,30.01,West,271,0.0,0.0,98,0.00,,,0.22,,2013-05-12 09:42:00,
2013-05-12 04:52:00,62.0,61.0,30.01,West,271,0.0,0.0,98,0.00,,,0.22,,2013-05-12 09:52:00,
2013-05-12 05:03:00,62.0,61.0,30.01,West,265,0.0,2.0,98,0.00,,,0.22,,2013-05-12 10:03:00,
2013-05-12 05:12:00,62.0,61.0,30.01,West,265,0.0,2.0,98,0.00,,,0.22,,2013-05-12 10:12:00,
2013-05-12 05:22:00,62.0,62.0,30.01,West,265,0.0,1.0,99,0.00,,,0.22,,2013-05-12 10:22:00,
2013-05-12 05:33:00,62.0,62.0,30.03,SSW,202,0.0,3.0,99,0.00,,,0.22,,2013-05-12 10:33:00,
2013-05-12 05:42:00,62.0,62.0,30.03,SSW,202,0.0,3.0,99,0.00,,,0.22,,2013-05-12 10:42:00,
2013-05-12 05:52:00,62.0,62.0,30.03,SSW,202,0.0,3.0,99,0.00,,,0.22,,2013-05-12 10:52:00,
2013-05-12 06:02:00,61.0,60.0,30.04,SSW,202,0.0,0.0,98,0.00,,,0.22,,2013-05-12 11:02:00,
2013-05-12 06:12:00,61.0,60.0,30.04,SSW,202,0.0,0.0,98,0.00,,,0.22,,2013-05-12 11:12:00,
2013-05-12 06:22:00,61.0,60.0,30.04,SSW,202,0.0,0.0,98,0.00,,,0.22,,2013-05-12 11:22:00,
2013-05-12 06:32:00,61.0,60.0,30.04,SSW,202,0.0,0.0,98,0.00,,,0.22,,2013-05-12 11:32:00,
2013-05-12 06:42:00,60.0,59.0,30.05,SSW,202,0.0,0.0,98,0.00,,,0.22,,2013-05-12 11:42:00,
2013-05-12 06:52:00,60.0,59.0,30.05,SSW,202,0.0,0.0,98,0.00,,,0.22,,2013-05-12 11:52:00,
2013-05-12 07:02:00,61.0,61.0,30.06,SSW,202,0.0,0.0,99,0.00,,,0.22,,2013-05-12 12:02:00,
2013-05-12 07:11:00,61.0,61.0,30.06,SSW,202,0.0,0.0,99,0.00,,,0.22,,2013-05-12 12:11:00,
2013-05-12 07:21:00,61.0,61.0,30.06,SSW,202,0.0,0.0,99,0.00,,,0.22,,2013-05-12 12:21:00,
2013-05-12 07:32:00,62.0,62.0,30.07,SSW,202,0.0,0.0,99,0.00,,,0.22,,2013-05-12 12:32:00,
2013-05-12 07:41:00,62.0,62.0,30.07,SSW,202,0.0,0.0,99,0.00,,,0.22,,2013-05-12 12:41:00,
2013-05-12 07:51:00,62.0,62.0,30.07,SSW,202,0.0,0.0,99,0.00,,,0.22,,2013-05-12 12:51:00,
2013-05-12 08:01:00,64.0,63.0,30.07,SSW,202,0.0,1.0,98,0.00,,,0.20,,2013-05-12 13:01:00,
2013-05-12 08:11:00,64.0,63.0,30.07,SSW,202,0.0,1.0,98,0.00,,,0.20,,2013-05-12 13:11:00,
2013-05-12 08:21:00,65.0,64.0,30.07,ESE,115,1.0,3.0,97,0.00,,,0.20,,2013-05-12 13:21:00,
2013-05-12 08:32:00,66.0,64.0,30.08,NNE,16,0.0,4.0,93,0.00,,,0.20,,2013-05-12 13:32:00,
2013-05-12 08:41:00,66.0,64.0,30.08,NNE,16,0.0,4.0,93,0.00,,,0.20,,2013-05-12 13:41:00,
2013-05-12 08:52:00,68.0,63.0,30.08,NNE,12,0.0,1.0,84,0.00,,,0.20,,2013-05-12 13:52:00,
2013-05-12 09:01:00,70.0,61.0,30.09,SE,146,1.0,4.0,73,0.00,,,0.07,,2013-05-12 14:01:00,
2013-05-12 09:11:00,70.0,61.0,30.09,SE,146,1.0,4.0,73,0.00,,,0.07,,2013-05-12 14:11:00,
2013-05-12 09:21:00,71.0,62.0,30.09,ESE,102,0.0,5.0,73,0.00,,,0.07,,2013-05-12 14:21:00,
2013-05-12 09:32:00,72.0,60.0,30.10,ESE,123,1.0,5.0,66,0.00,,,0.07,,2013-05-12 14:32:00,
2013-05-12 09:42:00,73.0,61.0,30.10,East,98,1.0,4.0,65,0.00,,,0.07,,2013-05-12 14:42:00,
2013-05-12 09:52:00,73.0,61.0,30.10,East,98,1.0,4.0,65,0.00,,,0.07,,2013-05-12 14:52:00,
2013-05-12 10:01:00,75.0,60.0,30.09,SSW,209,1.0,4.0,60,0.00,,,0.02,,2013-05-12 15:01:00,
2013-05-12 10:11:00,75.0,60.0,30.09,SSW,209,1.0,4.0,60,0.00,,,0.02,,2013-05-12 15:11:00,
2013-05-12 10:21:00,75.0,60.0,30.09,SW,219,1.0,9.0,59,0.00,,,0.02,,2013-05-12 15:21:00,
2013-05-12 10:34:00,75.0,58.0,30.10,ESE,117,3.0,10.0,55,0.00,,,0.02,,2013-05-12 15:34:00,
2013-05-12 10:42:00,75.0,58.0,30.10,ESE,117,3.0,10.0,55,0.00,,,0.02,,2013-05-12 15:42:00,
2013-05-12 10:52:00,75.0,58.0,30.10,SE,136,0.0,5.0,55,0.00,,,0.02,,2013-05-12 15:52:00,
2013-05-12 11:02:00,77.0,58.0,30.09,NNE,28,0.0,4.0,52,0.00,,,0.00,,2013-05-12 16:02:00,
2013-05-12 11:12:00,78.0,58.0,30.09,East,84,1.0,5.0,50,0.00,,,0.00,,2013-05-12 16:12:00,
2013-05-12 11:23:00,78.0,58.0,30.09,East,84,1.0,5.0,50,0.00,,,0.00,,2013-05-12 16:23:00,
2013-05-12 11:33:00,77.0,59.0,30.09,SE,125,0.0,7.0,53,0.00,,,0.00,,2013-05-12 16:33:00,
2013-05-12 11:42:00,77.0,59.0,30.09,SE,125,0.0,7.0,53,0.00,,,0.00,,2013-05-12 16:42:00,
2013-05-12 11:52:00,77.0,58.0,30.09,SSE,147,1.0,10.0,52,0.00,,,0.00,,2013-05-12 16:52:00,
2013-05-12 12:02:00,78.0,59.0,30.09,ESE,102,1.0,5.0,53,0.00,,,0.00,,2013-05-12 17:02:00,
2013-05-12 12:12:00,78.0,58.0,30.09,East,80,0.0,6.0,51,0.00,,,0.00,,2013-05-12 17:12:00,
2013-05-12 12:22:00,78.0,58.0,30.09,East,80,0.0,6.0,51,0.00,,,0.00,,2013-05-12 17:22:00,
2013-05-12 12:32:00,78.0,56.0,30.09,SE,129,2.0,6.0,47,0.00,,,0.00,,2013-05-12 17:32:00,
2013-05-12 12:42:00,79.0,58.0,30.09,SE,137,2.0,9.0,49,0.00,,,0.00,,2013-05-12 17:42:00,
2013-05-12 12:52:00,79.0,58.0,30.09,SE,137,2.0,9.0,49,0.00,,,0.00,,2013-05-12 17:52:00,
2013-05-12 13:01:00,79.0,56.0,30.09,ESE,111,0.0,4.0,45,0.00,,,0.00,,2013-05-12 18:01:00,
2013-05-12 13:12:00,79.0,56.0,30.09,ESE,111,0.0,4.0,45,0.00,,,0.00,,2013-05-12 18:12:00,
2013-05-12 13:22:00,80.0,57.0,30.09,South,179,1.0,4.0,45,0.00,,,0.00,,2013-05-12 18:22:00,
2013-05-12 13:32:00,78.0,57.0,30.08,ENE,74,0.0,5.0,49,0.00,,,0.00,,2013-05-12 18:32:00,
2013-05-12 13:42:00,78.0,57.0,30.08,ENE,74,0.0,5.0,49,0.00,,,0.00,,2013-05-12 18:42:00,
2013-05-12 13:51:00,78.0,58.0,30.08,ENE,69,0.0,4.0,51,0.00,,,0.00,,2013-05-12 18:51:00,
2013-05-12 14:01:00,79.0,57.0,30.09,SSW,195,0.0,6.0,47,0.00,,,0.00,,2013-05-12 19:01:00,
2013-05-12 14:11:00,79.0,57.0,30.09,SSW,195,0.0,6.0,47,0.00,,,0.00,,2013-05-12 19:11:00,
2013-05-12 14:21:00,79.0,58.0,30.09,SW,234,0.0,4.0,49,0.00,,,0.00,,2013-05-12 19:21:00,
2013-05-12 14:32:00,79.0,57.0,30.09,SSW,203,0.0,5.0,47,0.00,,,0.00,,2013-05-12 19:32:00,
2013-05-12 14:42:00,79.0,59.0,30.09,SE,142,0.0,3.0,50,0.00,,,0.00,,2013-05-12 19:42:00,
2013-05-12 14:52:00,79.0,59.0,30.09,SE,142,0.0,3.0,50,0.00,,,0.00,,2013-05-12 19:52:00,
2013-05-12 15:02:00,79.0,60.0,30.07,East,95,0.0,1.0,52,0.00,,,0.00,,2013-05-12 20:02:00,
2013-05-12 15:11:00,79.0,59.0,30.07,ESE,110,0.0,4.0,51,0.00,,,0.00,,2013-05-12 20:11:00,
2013-05-12 15:21:00,79.0,59.0,30.07,ESE,110,0.0,4.0,51,0.00,,,0.00,,2013-05-12 20:21:00,
2013-05-12 15:32:00,80.0,60.0,30.06,SSW,195,1.0,5.0,51,0.00,,,0.00,,2013-05-12 20:32:00,
2013-05-12 15:42:00,80.0,60.0,30.06,SSW,195,1.0,5.0,51,0.00,,,0.00,,2013-05-12 20:42:00,
2013-05-12 15:51:00,81.0,59.0,30.06,South,175,0.0,6.0,47,0.00,,,0.00,,2013-05-12 20:51:00,
2013-05-12 16:01:00,81.0,59.0,30.06,East,93,0.0,3.0,47,0.00,,,0.00,,2013-05-12 21:01:00,
2013-05-12 16:11:00,82.0,60.0,30.06,SSW,205,1.0,4.0,47,0.00,,,0.00,,2013-05-12 21:11:00,
2013-05-12 16:21:00,82.0,60.0,30.06,SSW,205,1.0,4.0,47,0.00,,,0.00,,2013-05-12 21:21:00,
2013-05-12 16:33:00,83.0,61.0,30.06,NE,46,0.0,3.0,47,0.00,,,0.00,,2013-05-12 21:33:00,
2013-05-12 16:42:00,83.0,61.0,30.06,NE,46,0.0,3.0,47,0.00,,,0.00,,2013-05-12 21:42:00,
2013-05-12 16:52:00,82.0,60.0,30.06,West,259,1.0,4.0,47,0.00,,,0.00,,2013-05-12 21:52:00,
2013-05-12 17:02:00,81.0,58.0,30.05,SW,216,1.0,4.0,46,0.00,,,0.00,,2013-05-12 22:02:00,
2013-05-12 17:12:00,81.0,58.0,30.05,South,177,1.0,4.0,46,0.00,,,0.00,,2013-05-12 22:12:00,
2013-05-12 17:23:00,81.0,58.0,30.05,South,177,1.0,4.0,46,0.00,,,0.00,,2013-05-12 22:23:00,
2013-05-12 17:33:00,80.0,57.0,30.06,South,169,1.0,4.0,46,0.00,,,0.00,,2013-05-12 22:33:00,
2013-05-12 17:42:00,80.0,57.0,30.06,South,169,1.0,4.0,46,0.00,,,0.00,,2013-05-12 22:42:00,
2013-05-12 17:52:00,79.0,56.0,30.06,South,173,0.0,3.0,46,0.00,,,0.00,,2013-05-12 22:52:00,
2013-05-12 18:02:00,80.0,57.0,30.05,ESE,119,0.0,4.0,46,0.00,,,0.00,,2013-05-12 23:02:00,
2013-05-12 18:12:00,79.0,56.0,30.05,ESE,119,0.0,3.0,46,0.00,,,0.00,,2013-05-12 23:12:00,
2013-05-12 18:22:00,79.0,56.0,30.05,ESE,119,0.0,3.0,46,0.00,,,0.00,,2013-05-12 23:22:00,
2013-05-12 18:32:00,77.0,57.0,30.05,NNE,23,0.0,6.0,51,0.00,,,0.00,,2013-05-12 23:32:00,
2013-05-12 18:42:00,77.0,57.0,30.05,NNE,23,0.0,6.0,51,0.00,,,0.00,,2013-05-12 23:42:00,
2013-05-12 18:52:00,76.0,58.0,30.05,South,171,0.0,3.0,53,0.00,,,0.00,,2013-05-12 23:52:00,
2013-05-12 19:01:00,74.0,57.0,30.06,ESE,111,0.0,1.0,55,0.00,,,0.00,,2013-05-13 00:01:00,
2013-05-12 19:11:00,74.0,57.0,30.06,ESE,111,0.0,1.0,55,0.00,,,0.00,,2013-05-13 00:11:00,
2013-05-12 19:21:00,74.0,57.0,30.06,NE,36,0.0,3.0,55,0.00,,,0.00,,2013-05-13 00:21:00,
2013-05-12 19:32:00,73.0,58.0,30.06,NE,36,0.0,2.0,60,0.00,,,0.00,,2013-05-13 00:32:00,
2013-05-12 19:42:00,72.0,57.0,30.06,East,95,0.0,2.0,59,0.00,,,0.00,,2013-05-13 00:42:00,
2013-05-12 19:51:00,72.0,57.0,30.06,East,95,0.0,2.0,59,0.00,,,0.00,,2013-05-13 00:51:00,
2013-05-12 20:01:00,72.0,57.0,30.08,SW,227,0.0,1.0,59,0.00,,,0.00,,2013-05-13 01:01:00,
2013-05-12 20:11:00,72.0,57.0,30.08,SW,227,0.0,1.0,59,0.00,,,0.00,,2013-05-13 01:11:00,
2013-05-12 20:22:00,71.0,56.0,30.08,SW,227,0.0,0.0,60,0.00,,,0.00,,2013-05-13 01:22:00,
2013-05-12 20:31:00,70.0,57.0,30.08,ESE,123,0.0,3.0,63,0.00,,,0.00,,2013-05-13 01:31:00,
2013-05-12 20:41:00,70.0,57.0,30.08,ESE,123,0.0,3.0,63,0.00,,,0.00,,2013-05-13 01:41:00,
2013-05-12 20:52:00,70.0,57.0,30.08,NNE,33,0.0,1.0,63,0.00,,,0.00,,2013-05-13 01:52:00,
2013-05-12 21:01:00,69.0,57.0,30.09,NE,40,0.0,1.0,65,0.00,,,0.00,,2013-05-13 02:01:00,
2013-05-12 21:11:00,69.0,57.0,30.09,NE,40,0.0,1.0,65,0.00,,,0.00,,2013-05-13 02:11:00,
2013-05-12 21:21:00,69.0,58.0,30.09,NE,40,0.0,0.0,67,0.00,,,0.00,,2013-05-13 02:21:00,
2013-05-12 21:32:00,67.0,57.0,30.10,NE,40,0.0,0.0,71,0.00,,,0.00,,2013-05-13 02:32:00,
2013-05-12 21:41:00,67.0,57.0,30.10,NE,40,0.0,0.0,71,0.00,,,0.00,,2013-05-13 02:41:00,
2013-05-12 21:51:00,67.0,58.0,30.10,NE,40,0.0,0.0,72,0.00,,,0.00,,2013-05-13 02:51:00,
2013-05-12 22:02:00,66.0,57.0,30.10,NE,41,0.0,1.0,73,0.00,,,0.00,,2013-05-13 03:02:00,
2013-05-12 22:11:00,66.0,57.0,30.10,NE,45,0.0,1.0,74,0.00,,,0.00,,2013-05-13 03:11:00,
2013-05-12 22:21:00,66.0,57.0,30.10,NE,45,0.0,1.0,74,0.00,,,0.00,,2013-05-13 03:21:00,
2013-05-12 22:32:00,65.0,57.0,30.11,NE,45,0.0,1.0,76,0.00,,,0.00,,2013-05-13 03:32:00,
2013-05-12 22:42:00,65.0,57.0,30.11,NE,45,0.0,1.0,76,0.00,,,0.00,,2013-05-13 03:42:00,
2013-05-12 22:52:00,64.0,57.0,30.11,NE,45,0.0,0.0,77,0.00,,,0.00,,2013-05-13 03:52:00,
2013-05-12 23:02:00,63.0,56.0,30.11,NE,45,0.0,0.0,78,0.00,,,0.00,,2013-05-13 04:02:00,
2013-05-12 23:12:00,63.0,56.0,30.11,NE,45,0.0,0.0,78,0.00,,,0.00,,2013-05-13 04:12:00,
2013-05-12 23:23:00,63.0,56.0,30.11,NE,45,0.0,0.0,78,0.00,,,0.00,,2013-05-13 04:23:00,
2013-05-12 23:32:00,62.0,56.0,30.11,NE,45,0.0,0.0,80,0.00,,,0.00,,2013-05-13 04:32:00,
2013-05-12 23:42:00,62.0,56.0,30.11,NE,45,0.0,0.0,80,0.00,,,0.00,,2013-05-13 04:42:00,
2013-05-12 23:52:00,61.0,55.0,30.11,NE,45,0.0,0.0,80,0.00,,,0.00,,2013-05-13 04:52:00,